createdAt,value
2023-02-03T00:01:07.880Z,25.37
2023-02-03T00:03:36.812Z,7.63
2023-02-03T00:06:07.753Z,6.30
2023-02-03T00:08:37.553Z,5.80
2023-02-03T00:11:07.339Z,6.70
2023-02-03T00:13:37.117Z,10.50
2023-02-03T00:16:07.070Z,10.53
2023-02-03T00:18:35.933Z,36.20
2023-02-03T00:21:04.826Z,10.13
2023-02-03T00:23:35.459Z,5.07
2023-02-03T00:26:09.660Z,5.73
2023-02-03T00:28:39.347Z,5.70
2023-02-03T00:31:15.668Z,6.80
2023-02-03T00:33:44.556Z,5.63
2023-02-03T00:36:14.267Z,10.60
2023-02-03T00:38:44.678Z,7.73
2023-02-03T00:41:13.596Z,6.90
2023-02-03T00:43:42.953Z,5.07
2023-02-03T00:46:11.882Z,6.07
2023-02-03T00:48:40.881Z,3.27
2023-02-03T00:51:09.691Z,4.30
2023-02-03T00:53:38.564Z,2.97
2023-02-03T00:56:12.894Z,6.00
2023-02-03T00:58:41.808Z,4.10
2023-02-03T01:01:10.965Z,2.30
2023-02-03T01:03:40.377Z,4.70
2023-02-03T01:06:13.891Z,6.27
2023-02-03T01:08:43.322Z,8.30
2023-02-03T01:11:15.148Z,26.97
2023-02-03T01:13:44.190Z,9.17
2023-02-03T01:16:15.431Z,6.30
2023-02-03T01:18:44.831Z,9.43
2023-02-03T01:21:16.297Z,7.20
2023-02-03T01:23:45.955Z,10.73
2023-02-03T01:26:19.108Z,33.60
2023-02-03T01:28:53.179Z,37.00
2023-02-03T01:31:23.995Z,30.53
2023-02-03T01:33:54.726Z,30.73
2023-02-03T01:36:25.384Z,16.63
2023-02-03T01:38:54.807Z,12.70
2023-02-03T01:41:27.638Z,36.10
2023-02-03T01:43:58.285Z,31.43
2023-02-03T01:46:31.632Z,21.33
2023-02-03T01:49:08.481Z,8.67
2023-02-03T01:51:39.906Z,9.40
2023-02-03T01:54:10.858Z,11.23
2023-02-03T01:56:45.432Z,35.47
2023-02-03T01:59:17.458Z,24.37
2023-02-03T02:01:46.826Z,34.03
2023-02-03T02:04:15.916Z,16.75
2023-02-03T02:06:48.177Z,23.43
2023-02-03T02:09:18.034Z,43.73
2023-02-03T02:11:48.413Z,47.53
2023-02-03T02:14:17.455Z,45.33
2023-02-03T02:16:54.953Z,24.33
2023-02-03T02:19:52.756Z,12.52
2023-02-03T02:22:26.773Z,9.40
2023-02-03T02:25:30.485Z,8.05
2023-02-03T02:28:33.418Z,8.30
2023-02-03T02:31:35.029Z,6.30
2023-02-03T02:34:15.451Z,5.85
2023-02-03T02:36:53.156Z,5.85
2023-02-03T02:39:26.778Z,7.00
2023-02-03T02:42:02.162Z,6.88
2023-02-03T02:44:37.058Z,11.02
2023-02-03T02:47:12.219Z,8.18
2023-02-03T02:49:46.115Z,6.28
2023-02-03T02:52:38.168Z,5.97
2023-02-03T02:55:12.921Z,4.93
2023-02-03T02:57:42.601Z,4.38
2023-02-03T03:00:13.573Z,4.60
2023-02-03T03:02:42.535Z,4.70
2023-02-03T03:05:14.044Z,6.15
2023-02-03T03:07:54.138Z,5.90
2023-02-03T03:10:27.833Z,5.90
2023-02-03T03:13:02.629Z,5.75
2023-02-03T03:15:33.815Z,5.65
2023-02-03T03:18:07.505Z,5.03
2023-02-03T03:20:43.103Z,5.55
2023-02-03T03:23:34.071Z,5.50
2023-02-03T03:26:10.435Z,5.10
2023-02-03T03:28:46.964Z,5.90
2023-02-03T03:31:16.397Z,5.32
2023-02-03T03:33:45.759Z,13.27
2023-02-03T03:36:23.508Z,8.60
2023-02-03T03:38:57.402Z,8.88
2023-02-03T03:41:33.936Z,10.88
2023-02-03T03:44:09.193Z,12.13
2023-02-03T03:46:44.964Z,9.52
2023-02-03T03:49:15.172Z,9.77
2023-02-03T03:51:49.786Z,11.55
2023-02-03T03:54:24.784Z,18.08
2023-02-03T03:56:59.544Z,20.10
2023-02-03T03:59:32.928Z,21.80
2023-02-03T04:02:05.177Z,18.50
2023-02-03T04:04:37.039Z,19.65
2023-02-03T04:07:07.995Z,21.23
2023-02-03T04:09:38.168Z,21.60
2023-02-03T04:12:08.084Z,22.52
2023-02-03T04:14:39.559Z,25.17
2023-02-03T04:17:08.820Z,23.27
2023-02-03T04:19:37.587Z,27.02
2023-02-03T04:22:09.236Z,31.10
2023-02-03T04:24:38.147Z,39.87
2023-02-03T04:27:06.915Z,40.22
2023-02-03T04:29:35.735Z,40.88
2023-02-03T04:32:04.701Z,42.33
2023-02-03T04:34:33.538Z,37.95
2023-02-03T04:37:02.419Z,32.90
2023-02-03T04:39:32.667Z,26.80
2023-02-03T04:42:01.608Z,26.50
2023-02-03T04:44:30.388Z,28.70
2023-02-03T04:46:59.179Z,37.35
2023-02-03T04:49:28.260Z,45.42
2023-02-03T04:51:57.044Z,42.75
2023-02-03T04:54:25.861Z,38.13
2023-02-03T04:56:56.105Z,42.33
2023-02-03T04:59:24.924Z,46.80
2023-02-03T05:01:53.837Z,43.17
2023-02-03T05:04:22.634Z,42.28
2023-02-03T05:06:51.965Z,45.53
2023-02-03T05:09:20.866Z,43.22
2023-02-03T05:11:50.043Z,44.35
2023-02-03T05:14:20.240Z,48.70
2023-02-03T05:16:49.210Z,72.00
2023-02-03T05:19:18.027Z,51.80
2023-02-03T05:21:46.843Z,49.15
2023-02-03T05:24:15.837Z,47.25
2023-02-03T05:26:44.643Z,40.55
2023-02-03T05:29:13.447Z,43.05
2023-02-03T05:31:44.723Z,43.03
2023-02-03T05:34:14.335Z,44.20
2023-02-03T05:36:43.180Z,35.90
2023-02-03T05:39:11.962Z,35.00
2023-02-03T05:41:57.337Z,45.42
2023-02-03T05:44:29.721Z,54.20
2023-02-03T05:47:01.331Z,56.97
2023-02-03T05:49:30.163Z,56.88
2023-02-03T05:51:58.953Z,62.33
2023-02-03T05:54:27.906Z,64.95
2023-02-03T05:56:56.781Z,62.93
2023-02-03T05:59:25.520Z,80.37
2023-02-03T06:01:54.337Z,66.67
2023-02-03T06:04:24.659Z,89.40
2023-02-03T06:06:53.723Z,106.22
2023-02-03T06:09:22.505Z,81.05
2023-02-03T06:11:51.291Z,59.72
2023-02-03T06:14:20.192Z,63.23
2023-02-03T06:16:49.118Z,64.90
2023-02-03T06:19:17.984Z,44.08
2023-02-03T06:21:48.259Z,36.60
2023-02-03T06:24:17.233Z,31.38
2023-02-03T06:26:46.060Z,31.75
2023-02-03T06:29:14.901Z,29.40
2023-02-03T06:31:43.781Z,40.20
2023-02-03T06:34:12.708Z,51.67
2023-02-03T06:36:41.515Z,49.67
2023-02-03T06:39:11.735Z,55.42
2023-02-03T06:41:40.666Z,53.28
2023-02-03T06:44:09.777Z,58.23
2023-02-03T06:46:38.700Z,57.70
2023-02-03T06:49:07.571Z,70.90
2023-02-03T06:51:36.407Z,83.77
2023-02-03T06:54:05.528Z,58.90
2023-02-03T06:56:36.031Z,54.47
2023-02-03T06:59:05.191Z,76.77
2023-02-03T07:01:34.066Z,56.93
2023-02-03T07:04:02.921Z,46.77
2023-02-03T07:06:34.291Z,48.10
2023-02-03T07:09:04.949Z,41.43
2023-02-03T07:11:35.280Z,36.43
2023-02-03T07:14:04.243Z,27.53
2023-02-03T07:16:34.403Z,25.97
2023-02-03T07:19:03.318Z,25.13
2023-02-03T07:21:32.210Z,30.33
2023-02-03T07:24:02.494Z,33.17
2023-02-03T07:26:31.408Z,37.50
2023-02-03T07:29:01.632Z,47.60
2023-02-03T07:31:30.548Z,51.60
2023-02-03T07:34:01.334Z,44.70
2023-02-03T07:36:30.564Z,30.77
2023-02-03T07:38:59.451Z,29.50
2023-02-03T07:41:28.529Z,33.63
2023-02-03T07:43:57.412Z,32.73
2023-02-03T07:46:27.765Z,42.47
2023-02-03T07:48:56.643Z,43.50
2023-02-03T07:51:25.537Z,44.27
2023-02-03T07:53:54.414Z,45.47
2023-02-03T07:56:23.199Z,45.07
2023-02-03T07:58:54.458Z,48.83
2023-02-03T08:01:23.511Z,47.63
2023-02-03T08:03:55.232Z,38.70
2023-02-03T08:06:24.687Z,35.10
2023-02-03T08:08:54.328Z,31.20
2023-02-03T08:11:23.284Z,27.03
2023-02-03T08:13:52.432Z,25.73
2023-02-03T08:16:21.432Z,28.87
2023-02-03T08:18:50.280Z,23.47
2023-02-03T08:21:20.691Z,23.80
2023-02-03T08:23:49.607Z,30.20
2023-02-03T08:26:18.445Z,30.50
2023-02-03T08:28:51.157Z,34.80
2023-02-03T08:31:20.113Z,39.43
2023-02-03T08:33:49.088Z,41.40
2023-02-03T08:36:19.312Z,37.90
2023-02-03T08:38:48.174Z,50.40
2023-02-03T08:41:20.252Z,47.53
2023-02-03T08:43:49.548Z,38.47
2023-02-03T08:46:18.565Z,41.13
2023-02-03T08:48:47.363Z,36.97
2023-02-03T08:51:18.238Z,38.80
2023-02-03T08:53:48.633Z,38.30
2023-02-03T08:56:17.622Z,38.83
2023-02-03T08:58:46.381Z,38.63
2023-02-03T09:01:17.032Z,44.00
2023-02-03T09:03:46.035Z,38.40
2023-02-03T09:06:16.850Z,41.00
2023-02-03T09:08:46.378Z,42.27
2023-02-03T09:11:18.556Z,39.77
2023-02-03T09:13:48.868Z,41.97
2023-02-03T09:16:19.569Z,40.33
2023-02-03T09:18:49.042Z,46.50
2023-02-03T09:21:33.279Z,73.90
2023-02-03T09:24:06.679Z,52.80
2023-02-03T09:26:37.079Z,47.13
2023-02-03T09:29:06.095Z,40.80
2023-02-03T09:31:34.970Z,37.70
2023-02-03T09:34:03.968Z,38.47
2023-02-03T09:36:32.985Z,38.20
2023-02-03T09:39:01.967Z,39.40
2023-02-03T09:42:03.231Z,35.83
2023-02-03T09:44:39.875Z,33.40
2023-02-03T09:47:14.764Z,34.27
2023-02-03T09:49:50.503Z,36.03
2023-02-03T09:52:22.919Z,35.27
2023-02-03T09:55:00.261Z,38.43
2023-02-03T09:57:32.866Z,32.33
2023-02-03T10:00:11.814Z,30.90
2023-02-03T10:02:55.945Z,32.00
2023-02-03T10:05:33.102Z,30.93
2023-02-03T10:08:09.536Z,32.53
2023-02-03T10:10:42.826Z,31.33
2023-02-03T10:13:24.312Z,43.80
2023-02-03T10:16:13.478Z,33.43
2023-02-03T10:18:48.311Z,29.80
2023-02-03T10:21:21.085Z,29.73
2023-02-03T10:23:51.700Z,31.00
2023-02-03T10:26:22.928Z,33.60
2023-02-03T10:28:57.646Z,34.47
2023-02-03T10:31:29.352Z,38.13
2023-02-03T10:34:02.743Z,38.03
2023-02-03T10:36:41.927Z,38.27
2023-02-03T10:39:21.579Z,38.73
2023-02-03T10:41:50.669Z,39.23
2023-02-03T10:44:21.190Z,43.23
2023-02-03T10:46:50.003Z,46.97
2023-02-03T10:49:19.678Z,48.07
2023-02-03T10:51:52.677Z,49.40
2023-02-03T10:54:33.310Z,46.93
2023-02-03T10:57:09.532Z,47.73
2023-02-03T10:59:44.301Z,48.50
2023-02-03T11:02:25.939Z,49.63
2023-02-03T11:05:10.247Z,52.17
2023-02-03T11:07:39.334Z,56.87
2023-02-03T11:10:28.857Z,62.50
2023-02-03T11:13:14.053Z,56.23
2023-02-03T11:15:54.443Z,56.17
2023-02-03T11:18:42.915Z,42.17
2023-02-03T11:21:14.457Z,43.83
2023-02-03T11:23:54.107Z,38.53
2023-02-03T11:26:25.812Z,10.77
2023-02-03T11:28:57.827Z,6.33
2023-02-03T11:31:30.416Z,9.07
2023-02-03T11:34:03.257Z,7.10
2023-02-03T11:36:34.117Z,6.23
2023-02-03T11:39:19.610Z,5.97
2023-02-03T11:41:49.864Z,7.30
2023-02-03T11:44:22.076Z,4.93
2023-02-03T11:46:55.787Z,4.60
2023-02-03T11:49:55.124Z,5.10
2023-02-03T11:52:51.830Z,5.30
2023-02-03T11:55:46.635Z,8.63
2023-02-03T11:58:35.462Z,4.80
2023-02-03T12:01:15.333Z,4.10
2023-02-03T12:04:20.309Z,4.53
2023-02-03T12:07:04.251Z,6.03
2023-02-03T12:09:42.118Z,6.70
2023-02-03T12:12:48.399Z,5.70
2023-02-03T12:15:40.268Z,8.30
2023-02-03T12:18:24.994Z,9.93
2023-02-03T12:21:07.495Z,8.33
2023-02-03T12:23:50.013Z,7.87
2023-02-03T12:26:23.550Z,9.87
2023-02-03T12:29:06.411Z,9.90
2023-02-03T12:31:41.167Z,9.03
2023-02-03T12:34:19.565Z,8.37
2023-02-03T12:36:56.166Z,8.13
2023-02-03T12:39:32.414Z,8.60
2023-02-03T12:42:04.813Z,10.87
2023-02-03T12:44:40.612Z,12.27
2023-02-03T12:47:16.314Z,12.30
2023-02-03T12:50:08.473Z,13.20
2023-02-03T12:52:42.163Z,17.80
2023-02-03T12:55:23.409Z,24.57
2023-02-03T12:58:00.303Z,28.27
2023-02-03T13:00:42.490Z,38.20
2023-02-03T13:03:18.667Z,31.73
2023-02-03T13:05:53.279Z,35.93
2023-02-03T13:08:32.861Z,36.70
2023-02-03T13:11:15.022Z,26.57
2023-02-03T13:13:49.701Z,23.43
2023-02-03T13:16:23.743Z,22.30
2023-02-03T13:18:59.886Z,23.43
2023-02-03T13:21:28.830Z,24.13
2023-02-03T13:23:59.339Z,23.43
2023-02-03T13:27:01.037Z,24.87
2023-02-03T13:29:51.586Z,36.40
2023-02-03T13:32:34.991Z,34.20
2023-02-03T13:35:24.548Z,31.63
2023-02-03T13:38:31.231Z,32.97
2023-02-03T13:41:09.198Z,57.97
2023-02-03T13:43:41.896Z,47.43
2023-02-03T13:46:22.614Z,52.30
2023-02-03T13:48:52.543Z,60.40
2023-02-03T13:51:25.454Z,62.63
2023-02-03T13:54:00.207Z,86.37
2023-02-03T13:56:31.129Z,76.37
2023-02-03T13:59:06.603Z,82.43
2023-02-03T14:01:38.704Z,46.73
2023-02-03T14:04:10.305Z,35.43
2023-02-03T14:07:01.321Z,33.97
2023-02-03T14:09:41.232Z,32.13
2023-02-03T14:12:36.633Z,27.93
2023-02-03T14:15:39.821Z,19.07
2023-02-03T14:18:33.961Z,18.13
2023-02-03T14:21:16.022Z,17.43
2023-02-03T14:23:56.961Z,22.30
2023-02-03T14:26:47.914Z,18.93
2023-02-03T14:29:29.631Z,21.00
2023-02-03T14:32:00.667Z,21.70
2023-02-03T14:34:39.678Z,18.30
2023-02-03T14:37:21.314Z,17.43
2023-02-03T14:40:13.770Z,17.53
2023-02-03T14:43:12.218Z,18.63
2023-02-03T14:46:10.768Z,21.27
2023-02-03T14:49:03.648Z,20.77
2023-02-03T14:51:48.143Z,19.03
2023-02-03T14:54:38.904Z,21.07
2023-02-03T14:57:21.275Z,22.23
2023-02-03T14:59:53.259Z,22.47
2023-02-03T15:02:26.070Z,23.37
2023-02-03T15:05:35.032Z,22.43
2023-02-03T15:08:04.024Z,23.93
2023-02-03T15:10:43.539Z,25.07
2023-02-03T15:13:26.616Z,25.23
2023-02-03T15:15:57.968Z,24.87
2023-02-03T15:18:31.964Z,25.30
2023-02-03T15:21:02.330Z,25.57
2023-02-03T15:23:39.530Z,28.63
2023-02-03T15:26:14.520Z,30.17
2023-02-03T15:28:43.510Z,30.07
2023-02-03T15:31:20.666Z,30.30
2023-02-03T15:33:50.964Z,36.03
2023-02-03T15:36:23.918Z,37.00
2023-02-03T15:38:59.973Z,33.53
2023-02-03T15:41:29.067Z,37.40
2023-02-03T15:44:02.697Z,31.40
2023-02-03T15:46:37.079Z,30.13
2023-02-03T15:49:14.831Z,29.63
2023-02-03T15:51:51.354Z,28.83
2023-02-03T15:54:24.690Z,30.97
2023-02-03T15:56:59.924Z,33.60
2023-02-03T15:59:34.107Z,37.07
2023-02-03T16:02:08.681Z,44.90
2023-02-03T16:04:37.759Z,38.33
2023-02-03T16:07:08.163Z,44.30
2023-02-03T16:09:41.837Z,56.63
2023-02-03T16:12:20.163Z,44.60
2023-02-03T16:14:49.641Z,54.27
2023-02-03T16:17:30.207Z,82.67
2023-02-03T16:20:28.564Z,56.20
2023-02-03T16:23:07.975Z,62.17
2023-02-03T16:25:37.336Z,60.37
2023-02-03T16:28:34.560Z,60.03
2023-02-03T16:31:28.936Z,72.73
2023-02-03T16:34:15.382Z,94.63
2023-02-03T16:37:03.079Z,104.73
2023-02-03T16:39:50.916Z,103.53
2023-02-03T16:42:39.468Z,125.67
2023-02-03T16:45:34.334Z,131.37
2023-02-03T16:48:21.426Z,118.03
2023-02-03T16:50:59.186Z,110.53
2023-02-03T16:53:30.454Z,101.47
2023-02-03T16:56:19.583Z,89.63
2023-02-03T16:58:48.487Z,68.77
2023-02-03T17:01:17.408Z,59.07
2023-02-03T17:03:47.026Z,53.03
2023-02-03T17:06:16.345Z,51.60
2023-02-03T17:08:45.174Z,47.40
2023-02-03T17:11:18.506Z,46.83
2023-02-03T17:13:49.904Z,46.47
2023-02-03T17:16:21.398Z,42.90
2023-02-03T17:18:51.055Z,44.67
2023-02-03T17:21:21.488Z,52.00
2023-02-03T17:23:50.558Z,56.23
2023-02-03T17:26:19.858Z,49.97
2023-02-03T17:28:50.120Z,46.27
2023-02-03T17:31:21.792Z,47.07
2023-02-03T17:33:52.947Z,46.80
2023-02-03T17:36:23.487Z,48.43
2023-02-03T17:55:34.731Z,43.90
2023-02-03T17:58:04.220Z,50.37
2023-02-03T18:00:34.712Z,66.83
2023-02-03T18:03:03.653Z,147.90
2023-02-03T18:05:32.787Z,154.52
2023-02-03T18:08:08.922Z,171.25
2023-02-03T18:10:45.502Z,142.80
2023-02-03T18:13:14.422Z,113.93
2023-02-03T18:15:44.671Z,111.53
2023-02-03T18:18:13.586Z,111.70
2023-02-03T18:20:42.347Z,110.70
2023-02-03T18:23:11.117Z,138.48
2023-02-03T18:25:40.069Z,153.30
2023-02-03T18:28:08.933Z,150.97
2023-02-03T18:30:37.948Z,143.43
2023-02-03T18:33:08.506Z,104.07
2023-02-03T18:35:37.370Z,68.40
2023-02-03T18:38:07.792Z,61.47
2023-02-03T18:40:38.804Z,51.58
2023-02-03T18:43:07.744Z,56.40
2023-02-03T18:45:38.808Z,57.38
2023-02-03T18:48:09.394Z,66.17
2023-02-03T18:50:38.305Z,59.38
2023-02-03T18:53:07.316Z,54.17
2023-02-03T18:55:36.218Z,47.90
2023-02-03T18:58:05.067Z,52.78
2023-02-03T19:00:33.966Z,59.42
2023-02-03T19:03:03.952Z,64.80
2023-02-03T19:05:34.316Z,62.78
2023-02-03T19:08:03.278Z,109.47
2023-02-03T19:10:32.616Z,100.65
2023-02-03T19:13:01.507Z,100.85
2023-02-03T19:15:30.426Z,61.25
2023-02-03T19:17:59.209Z,71.97
2023-02-03T19:20:28.106Z,74.10
2023-02-03T19:22:58.576Z,70.32
2023-02-03T19:25:27.452Z,74.35
2023-02-03T19:27:56.263Z,73.63
2023-02-03T19:30:25.178Z,81.03
2023-02-03T19:32:54.075Z,101.85
2023-02-03T19:35:23.017Z,101.90
2023-02-03T19:37:53.984Z,115.25
2023-02-03T19:40:24.271Z,115.10
2023-02-03T19:42:53.230Z,120.35
2023-02-03T19:45:22.042Z,101.50
2023-02-03T19:47:51.109Z,175.70
2023-02-03T19:50:20.238Z,133.00
2023-02-03T19:52:49.569Z,143.32
2023-02-03T19:55:18.514Z,130.45
2023-02-03T19:57:50.055Z,121.95
2023-02-03T20:00:20.575Z,107.53
2023-02-03T20:02:50.727Z,99.20
2023-02-03T20:05:19.846Z,81.03
2023-02-03T20:07:48.774Z,69.03
2023-02-03T20:10:17.996Z,85.30
2023-02-03T20:12:48.276Z,69.25
2023-02-03T20:15:17.152Z,66.32
2023-02-03T20:17:45.920Z,74.65
2023-02-03T20:20:14.722Z,69.18
2023-02-03T20:22:43.583Z,71.10
2023-02-03T20:25:12.430Z,64.78
2023-02-03T20:27:41.331Z,68.53
2023-02-03T20:30:13.147Z,73.45
2023-02-03T20:32:42.138Z,70.68
2023-02-03T20:35:11.990Z,67.15
2023-02-03T20:37:41.108Z,70.60
2023-02-03T20:40:17.227Z,77.95
2023-02-03T20:42:47.663Z,79.63
2023-02-03T20:45:19.564Z,77.90
2023-02-03T20:47:48.581Z,81.00
2023-02-03T20:50:22.466Z,86.38
2023-02-03T20:52:54.030Z,87.40
2023-02-03T20:55:24.911Z,92.80
2023-02-03T20:57:56.055Z,96.72
2023-02-03T21:00:29.396Z,96.25
2023-02-03T21:03:16.062Z,86.22
2023-02-03T21:05:45.933Z,85.35
2023-02-03T21:08:15.604Z,90.63
2023-02-03T21:10:45.780Z,89.32
2023-02-03T21:13:22.863Z,87.07
2023-02-03T21:15:55.149Z,75.95
2023-02-03T21:18:40.543Z,74.00
2023-02-03T21:21:15.635Z,77.30
2023-02-03T21:23:47.722Z,63.97
2023-02-03T21:26:21.667Z,73.45
2023-02-03T21:28:52.445Z,77.18
2023-02-03T21:31:27.172Z,71.65
2023-02-03T21:33:57.340Z,60.10
2023-02-03T21:36:28.744Z,62.80
2023-02-03T21:38:59.956Z,71.95
2023-02-03T21:41:35.547Z,70.80
2023-02-03T21:44:23.355Z,74.43
2023-02-03T21:46:53.921Z,68.63
2023-02-03T21:49:22.772Z,76.18
2023-02-03T21:51:51.671Z,72.28
2023-02-03T21:54:28.120Z,76.72
2023-02-03T21:56:58.261Z,77.60
2023-02-03T21:59:29.881Z,83.75
2023-02-03T22:02:00.971Z,112.15
2023-02-03T22:04:31.204Z,144.68
2023-02-03T22:07:00.144Z,181.73
2023-02-03T22:09:29.233Z,203.75
2023-02-03T22:11:58.506Z,143.73
2023-02-03T22:14:28.140Z,91.25
2023-02-03T22:16:56.996Z,81.82
2023-02-03T22:19:27.287Z,82.03
2023-02-03T22:21:56.167Z,71.13
2023-02-03T22:24:24.986Z,67.00
2023-02-03T22:26:55.040Z,58.17
2023-02-03T22:29:23.903Z,56.50
2023-02-03T22:31:52.751Z,56.40
2023-02-03T22:34:23.185Z,57.53
2023-02-03T22:36:53.726Z,53.63
2023-02-03T22:39:22.584Z,53.13
2023-02-03T22:41:51.407Z,53.17
2023-02-03T22:44:20.446Z,54.20
2023-02-03T22:46:49.297Z,54.58
2023-02-03T22:49:18.099Z,51.55
2023-02-03T22:51:47.044Z,50.60
2023-02-03T22:54:17.450Z,47.78
2023-02-03T22:56:46.251Z,49.97
2023-02-03T22:59:15.038Z,49.38
2023-02-03T23:01:43.808Z,50.28
2023-02-03T23:04:12.681Z,49.08
2023-02-03T23:06:41.496Z,51.95
2023-02-03T23:09:10.337Z,48.80
2023-02-03T23:11:40.660Z,50.92
2023-02-03T23:14:10.388Z,51.30
2023-02-03T23:16:39.468Z,51.95
2023-02-03T23:19:08.282Z,51.78
2023-02-03T23:21:37.210Z,51.53
2023-02-03T23:24:06.560Z,49.22
2023-02-03T23:26:35.466Z,49.40
2023-02-03T23:29:05.841Z,49.30
2023-02-03T23:31:34.748Z,46.65
2023-02-03T23:34:21.278Z,50.55
2023-02-03T23:36:50.245Z,49.65
2023-02-03T23:39:19.220Z,49.13
2023-02-03T23:41:48.413Z,48.58
2023-02-03T23:44:18.838Z,45.83
2023-02-03T23:46:47.766Z,42.80
2023-02-03T23:49:16.775Z,47.97
2023-02-03T23:51:45.649Z,51.65
2023-02-03T23:54:14.685Z,52.25
2023-02-03T23:56:43.508Z,48.35
2023-02-03T23:59:13.219Z,52.72
